• Join FlightAware (Why Join?)
  • Login
  • US Flag 
09:28AM EST


 

Airport Tracker/Info


-or-


 

Live Flight TrackerFlight Track Log ✈ UCA597 ✈ 19-Mar-2014 ✈ KIAD - KBGM

Flight Track Log - Related Links

Times and Time Zones

All times are in EDT time to prevent confusion due to time zone crossing. See the UCA597 flight status page for this flight to view local times or setup timezone preferences in your user account.

Time Position Orientation Groundspeed Altitude Reporting Facility
EDT Latitude Longitude Course Direction KTS MPH feet Rate Location/Type
06:14PM 38.9500 -77.5167 337° Northwest 150 173 1,900  Level Potomac TRACON
06:16PM 39.0533 -77.5722 337° Northwest 205 236 4,400 1,200 Climbing Washington Center
06:17PM 39.1203 -77.5606 North 224 258 5,700 1,320 Climbing Washington Center
06:18PM 39.1894 -77.5439 11° North 238 274 7,100 1,500 Climbing Washington Center
06:19PM 39.2583 -77.5269 11° North 243 280 8,800 1,620 Climbing Washington Center
06:20PM 39.3233 -77.5100 11° North 238 274 10,300 1,380 Climbing Washington Center
06:21PM 39.3903 -77.4956 North 238 274 11,600 1,200 Climbing Washington Center
06:22PM 39.4572 -77.4811 North 238 274 12,800 1,260 Climbing Washington Center
06:24PM 39.5772 -77.4675 North 262 302 15,200 1,380 Climbing New York Center
06:25PM 39.6506 -77.4258 24° Northeast 262 302 16,600 1,140 Climbing New York Center
06:26PM 39.7150 -77.3914 22° Northeast 262 302 17,500 1,140 Climbing New York Center
06:27PM 39.7903 -77.3500 23° Northeast 262 302 18,900 1,200 Climbing New York Center
06:28PM 39.8589 -77.3158 21° North 262 302 19,900 960 Climbing New York Center
06:29PM 39.9319 -77.2767 22° Northeast 262 302 20,900 540 Climbing New York Center
06:30PM 40.0053 -77.2344 24° Northeast 268 308 21,000  Climbing New York Center
06:31PM 40.0869 -77.1906 22° Northeast 288 331 21,000  Level New York Center
06:32PM 40.1706 -77.1439 23° Northeast 308 354 21,000  Level New York Center
06:33PM 40.2544 -77.0972 23° Northeast 319 367 21,000  Level New York Center
06:34PM 40.3383 -77.0506 23° Northeast 319 367 21,000  Level New York Center
06:35PM 40.4242 -77.0011 24° Northeast 324 373 21,000  Level New York Center
06:36PM 40.5100 -76.9569 21° North 324 373 21,000  Level New York Center
06:37PM 40.5958 -76.9072 24° Northeast 324 373 21,000  Level New York Center
06:38PM 40.6797 -76.8600 23° Northeast 324 373 21,000  Level New York Center
06:39PM 40.7656 -76.8128 23° Northeast 324 373 21,000  Level New York Center
06:40PM 40.8511 -76.7656 23° Northeast 324 373 21,000 -420 Level New York Center
06:41PM 40.9328 -76.7178 24° Northeast 319 367 20,200 -960 Descending New York Center
06:42PM 41.0164 -76.6700 23° Northeast 319 367 19,100 -1,080 Descending New York Center
06:43PM 41.0853 -76.6292 24° Northeast 306 352 18,100 -1,020 Descending New York Center
06:44PM 41.1622 -76.5861 23° Northeast 301 346 17,100 -600 Descending New York Center
06:45PM 41.2503 -76.5358 23° Northeast 306 352 17,000 -60 Descending New York Center
06:46PM 41.3317 -76.4903 23° Northeast 306 352 17,000  Level New York Center
06:47PM 41.4089 -76.4442 24° Northeast 306 352 17,000  Level New York Center
06:48PM 41.4817 -76.4033 23° Northeast 306 352 17,000 -420 Level New York Center
06:49PM 41.5714 -76.3525 23° Northeast 311 358 16,200 -1,200 Descending New York Center
06:50PM 41.6592 -76.3017 23° Northeast 324 373 14,700 -1,500 Descending New York Center
06:51PM 41.7406 -76.2556 23° Northeast 324 373 13,300 -1,500 Descending New York Center
06:52PM 41.8153 -76.2117 24° Northeast 324 373 11,800 -1,500 Descending New York Center
06:53PM 41.9022 -76.1769 17° North 318 366 10,400 -1,560 Descending New York Center
06:54PM 41.9986 -76.1653 North 313 360 8,700 -1,500 Descending New York Center
06:55PM 42.0700 -76.1517 North 308 354 7,500 -1,380 Descending New York Center
06:56PM 42.1500 -76.1356 North 295 339 6,000 -1,500 Descending New York Center
06:57PM 42.2233 -76.1250 North 275 316 4,500 -1,320 Descending New York Center
06:58PM 42.2933 -76.1417 350° North 262 302 3,400 -600 Descending New York Center
06:59PM 42.3456 -76.1350 North 235 270 3,300 -60 Descending New York Center
07:00PM 42.3269 -76.0856 117° Southeast 105 121 3,300  Level New York Center
07:01PM 42.2928 -76.0578 149° Southeast 84 97 3,300 -300 Level New York Center
07:02PM 42.2650 -76.0303 144° Southeast 105 121 2,800 -540 Descending New York Center
07:04PM 42.2084 -75.9796 North  Level Estimated
07:11PM 42.2084 -75.9796 North  Level Estimated
07:12PM 42.2084 -75.9796 325° Northwest  Level Estimated
07:13PM 42.2084 -75.9796 325° Northwest  Level Estimated
07:14PM 42.2084 -75.9796 143° Southeast  Level Estimated